createdAt,value
2018-09-26T00:01:54.745Z,95514.35
2018-09-26T00:04:27.547Z,95510.45
2018-09-26T00:06:55.826Z,95503.45
2018-09-26T00:09:23.383Z,95503.45
2018-09-26T00:11:50.915Z,95498.20
2018-09-26T00:14:18.458Z,95492.07
2018-09-26T00:16:46.003Z,95481.95
2018-09-26T00:19:13.707Z,95473.66
2018-09-26T00:21:41.262Z,95476.50
2018-09-26T00:24:08.819Z,95475.28
2018-09-26T00:26:36.357Z,95477.45
2018-09-26T00:29:04.478Z,95481.28
2018-09-26T00:31:32.069Z,95470.02
2018-09-26T00:33:59.618Z,95471.13
2018-09-26T00:36:27.388Z,95468.84
2018-09-26T00:38:55.006Z,95467.30
2018-09-26T00:41:22.605Z,95470.02
2018-09-26T00:43:50.127Z,95465.72
2018-09-26T00:46:17.690Z,95478.67
2018-09-26T00:48:45.205Z,95469.20
2018-09-26T00:51:12.766Z,95469.31
2018-09-26T00:53:40.318Z,95463.98
2018-09-26T00:56:07.885Z,95461.53
2018-09-26T00:58:35.425Z,95457.38
2018-09-26T01:01:03.086Z,95459.03
2018-09-26T01:03:30.813Z,95465.72
2018-09-26T01:05:58.386Z,95464.69
2018-09-26T01:08:25.938Z,95450.83
2018-09-26T01:10:53.591Z,95447.22
2018-09-26T01:13:21.104Z,95439.56
2018-09-26T01:15:48.642Z,95441.46
2018-09-26T01:18:16.154Z,95443.55
2018-09-26T01:20:44.042Z,95443.23
2018-09-26T01:23:11.909Z,95437.70
2018-09-26T01:25:39.849Z,95434.27
2018-09-26T01:28:07.396Z,95435.81
2018-09-26T01:30:34.947Z,95427.05
2018-09-26T01:33:02.606Z,95422.10
2018-09-26T01:35:30.153Z,95412.11
2018-09-26T01:37:57.747Z,95407.14
2018-09-26T01:40:25.342Z,95396.98
2018-09-26T01:42:52.906Z,95384.11
2018-09-26T01:45:20.470Z,95386.80
2018-09-26T01:47:48.103Z,95388.18
2018-09-26T01:50:15.641Z,95380.80
2018-09-26T01:52:43.185Z,95377.33
2018-09-26T01:55:10.774Z,95372.20
2018-09-26T01:57:38.337Z,95367.06
2018-09-26T02:00:06.147Z,95367.61
2018-09-26T02:02:33.951Z,95371.12
2018-09-26T02:05:01.850Z,95368.05
2018-09-26T02:07:29.391Z,95367.84
2018-09-26T02:09:56.969Z,95370.02
2018-09-26T02:12:24.617Z,95383.28
2018-09-26T02:14:52.170Z,95387.81
2018-09-26T02:17:19.754Z,95384.50
2018-09-26T02:19:47.347Z,95378.78
2018-09-26T02:22:15.198Z,95385.89
2018-09-26T02:24:42.718Z,95382.64
2018-09-26T02:27:10.272Z,95372.94
2018-09-26T02:29:37.862Z,95372.13
2018-09-26T02:32:05.599Z,95365.77
2018-09-26T02:34:33.197Z,95357.98
2018-09-26T02:37:00.798Z,95354.56
2018-09-26T02:39:28.326Z,95356.16
2018-09-26T02:41:55.921Z,95357.84
2018-09-26T02:44:23.463Z,95354.50
2018-09-26T02:46:51.027Z,95350.03
2018-09-26T02:49:19.582Z,95354.41
2018-09-26T02:51:47.147Z,95354.30
2018-09-26T02:54:14.658Z,95347.27
2018-09-26T02:56:42.199Z,95347.70
2018-09-26T02:59:09.743Z,95348.20
2018-09-26T03:01:37.287Z,95345.09
2018-09-26T03:04:04.879Z,95357.67
2018-09-26T03:06:32.413Z,95368.46
2018-09-26T03:08:59.937Z,95377.43
2018-09-26T03:11:27.467Z,95377.02
2018-09-26T03:13:55.071Z,95381.47
2018-09-26T03:16:22.605Z,95383.70
2018-09-26T03:18:50.142Z,95386.77
2018-09-26T03:21:17.722Z,95382.41
2018-09-26T03:23:45.239Z,95378.73
2018-09-26T03:26:12.831Z,95378.98
2018-09-26T03:28:40.359Z,95372.63
2018-09-26T03:31:07.917Z,95371.43
2018-09-26T03:33:35.555Z,95373.30
2018-09-26T03:36:03.095Z,95371.41
2018-09-26T03:38:30.658Z,95375.45
2018-09-26T03:40:58.190Z,95377.84
2018-09-26T03:43:25.727Z,95379.23
2018-09-26T03:45:53.261Z,95375.23
2018-09-26T03:48:20.786Z,95370.98
2018-09-26T03:50:48.497Z,95366.98
2018-09-26T03:53:16.011Z,95365.79
2018-09-26T03:55:43.565Z,95359.87
2018-09-26T03:58:11.132Z,95354.45
2018-09-26T04:00:39.065Z,95342.77
2018-09-26T04:03:06.613Z,95353.14
2018-09-26T04:05:34.153Z,95352.33
2018-09-26T04:08:01.770Z,95354.77
2018-09-26T04:10:29.291Z,95351.02
2018-09-26T04:12:56.892Z,95345.81
2018-09-26T04:15:24.370Z,95338.34
2018-09-26T04:17:51.914Z,95332.47
2018-09-26T04:20:19.811Z,95322.77
2018-09-26T04:22:47.344Z,95309.68
2018-09-26T04:25:14.894Z,95302.24
2018-09-26T04:27:42.599Z,95297.52
2018-09-26T04:30:10.078Z,95293.72
2018-09-26T04:32:38.178Z,95290.77
2018-09-26T04:35:05.768Z,95298.43
2018-09-26T04:37:33.571Z,95299.13
2018-09-26T04:40:01.131Z,95298.88
2018-09-26T04:42:28.683Z,95296.02
2018-09-26T04:44:56.222Z,95304.50
2018-09-26T04:47:23.879Z,95314.95
2018-09-26T04:49:51.438Z,95317.42
2018-09-26T04:52:19.027Z,95332.70
2018-09-26T04:54:46.695Z,95328.00
2018-09-26T04:57:14.480Z,95329.28
2018-09-26T04:59:42.057Z,95326.44
2018-09-26T05:02:09.610Z,95322.52
2018-09-26T05:04:37.206Z,95334.99
2018-09-26T05:07:04.847Z,95339.68
2018-09-26T05:09:32.366Z,95343.56
2018-09-26T05:11:59.981Z,95343.30
2018-09-26T05:14:27.525Z,95354.70
2018-09-26T05:16:55.054Z,95354.94
2018-09-26T05:19:22.725Z,95355.59
2018-09-26T05:21:50.319Z,95347.30
2018-09-26T05:24:17.906Z,95347.23
2018-09-26T05:26:45.470Z,95356.80
2018-09-26T05:29:12.981Z,95358.98
2018-09-26T05:31:41.317Z,95360.78
2018-09-26T05:34:08.873Z,95364.73
2018-09-26T05:36:36.503Z,95372.58
2018-09-26T05:39:05.967Z,95380.34
2018-09-26T05:41:33.518Z,95386.45
2018-09-26T05:44:01.000Z,95393.30
2018-09-26T05:46:28.566Z,95402.31
2018-09-26T05:48:56.321Z,95401.88
2018-09-26T05:51:24.347Z,95413.30
2018-09-26T05:53:51.931Z,95411.94
2018-09-26T05:56:19.483Z,95413.83
2018-09-26T05:58:47.021Z,95416.56
2018-09-26T06:01:14.555Z,95415.02
2018-09-26T06:03:42.097Z,95419.23
2018-09-26T06:06:09.642Z,95422.80
2018-09-26T06:08:37.807Z,95420.69
2018-09-26T06:11:05.439Z,95418.94
2018-09-26T06:13:32.966Z,95414.75
2018-09-26T06:16:00.531Z,95421.71
2018-09-26T06:18:28.089Z,95416.52
2018-09-26T06:20:55.663Z,95428.13
2018-09-26T06:23:23.185Z,95439.22
2018-09-26T06:25:50.805Z,95434.94
2018-09-26T06:28:18.350Z,95442.64
2018-09-26T06:30:45.939Z,95445.95
2018-09-26T06:33:13.444Z,95441.14
2018-09-26T06:35:41.097Z,95434.14
2018-09-26T06:38:08.607Z,95432.45
2018-09-26T06:40:36.332Z,95433.16
2018-09-26T06:43:03.764Z,95433.27
2018-09-26T06:45:31.305Z,95428.78
2018-09-26T06:47:59.026Z,95433.95
2018-09-26T06:50:26.572Z,95425.67
2018-09-26T06:52:54.134Z,95419.91
2018-09-26T06:55:21.790Z,95419.22
2018-09-26T06:57:49.351Z,95420.78
2018-09-26T07:00:16.910Z,95423.31
2018-09-26T07:02:44.813Z,95422.27
2018-09-26T07:05:12.402Z,95422.13
2018-09-26T07:07:39.926Z,95425.82
2018-09-26T07:10:07.531Z,95432.20
2018-09-26T07:12:35.062Z,95428.74
2018-09-26T07:15:02.838Z,95425.91
2018-09-26T07:17:30.413Z,95420.09
2018-09-26T07:19:58.010Z,95412.07
2018-09-26T07:22:25.577Z,95408.72
2018-09-26T07:24:53.156Z,95412.98
2018-09-26T07:27:20.795Z,95403.52
2018-09-26T07:29:48.335Z,95404.37
2018-09-26T07:32:15.909Z,95414.50
2018-09-26T07:34:43.463Z,95409.38
2018-09-26T07:37:10.970Z,95422.72
2018-09-26T07:39:38.578Z,95423.74
2018-09-26T07:42:06.234Z,95426.13
2018-09-26T07:44:33.782Z,95425.16
2018-09-26T07:47:01.354Z,95428.73
2018-09-26T07:49:28.995Z,95434.30
2018-09-26T07:51:56.646Z,95429.30
2018-09-26T07:54:24.203Z,95427.73
2018-09-26T07:56:51.750Z,95424.55
2018-09-26T07:59:19.327Z,95430.64
2018-09-26T08:01:46.913Z,95435.70
2018-09-26T08:04:14.502Z,95434.02
2018-09-26T08:06:42.042Z,95433.13
2018-09-26T08:09:10.406Z,95435.68
2018-09-26T08:11:38.263Z,95429.84
2018-09-26T08:14:06.174Z,95428.02
2018-09-26T08:16:34.002Z,95427.58
2018-09-26T08:19:01.675Z,95420.81
2018-09-26T08:21:29.413Z,95424.92
2018-09-26T08:23:57.058Z,95432.44
2018-09-26T08:26:24.649Z,95428.59
2018-09-26T08:28:52.195Z,95437.20
2018-09-26T08:31:19.734Z,95438.35
2018-09-26T08:33:47.467Z,95443.11
2018-09-26T08:36:15.201Z,95451.24
2018-09-26T08:38:42.752Z,95458.84
2018-09-26T08:41:10.307Z,95464.49
2018-09-26T08:43:37.850Z,95467.39
2018-09-26T08:46:05.418Z,95471.09
2018-09-26T08:48:33.022Z,95469.69
2018-09-26T08:51:00.729Z,95473.23
2018-09-26T08:53:28.344Z,95467.73
2018-09-26T08:55:55.931Z,95458.19
2018-09-26T08:58:23.458Z,95463.96
2018-09-26T09:00:51.110Z,95456.49
2018-09-26T09:03:18.678Z,95449.65
2018-09-26T09:05:46.281Z,95447.08
2018-09-26T09:08:13.824Z,95446.75
2018-09-26T09:10:41.640Z,95443.34
2018-09-26T09:13:09.184Z,95445.67
2018-09-26T09:15:36.705Z,95445.71
2018-09-26T09:18:04.254Z,95447.87
2018-09-26T09:20:31.786Z,95441.89
2018-09-26T09:22:59.338Z,95446.95
2018-09-26T09:25:26.909Z,95450.14
2018-09-26T09:27:54.478Z,95441.06
2018-09-26T09:30:22.047Z,95445.73
2018-09-26T09:32:49.933Z,95446.98
2018-09-26T09:35:17.828Z,95445.56
2018-09-26T09:37:45.406Z,95436.29
2018-09-26T09:40:12.961Z,95434.30
2018-09-26T09:42:40.542Z,95432.70
2018-09-26T09:45:08.114Z,95433.75
2018-09-26T09:47:35.671Z,95441.55
2018-09-26T09:50:03.226Z,95442.56
2018-09-26T09:52:30.733Z,95441.67
2018-09-26T09:54:58.282Z,95448.54
2018-09-26T09:57:25.823Z,95439.88
2018-09-26T09:59:53.371Z,95443.16
2018-09-26T10:02:21.010Z,95430.19
2018-09-26T10:04:48.485Z,95432.38
2018-09-26T10:07:16.229Z,95431.58
2018-09-26T10:09:43.833Z,95424.62
2018-09-26T10:12:12.081Z,95425.74
2018-09-26T10:14:39.703Z,95425.09
2018-09-26T10:17:07.886Z,95426.38
2018-09-26T10:19:35.447Z,95426.63
2018-09-26T10:22:03.034Z,95423.52
2018-09-26T10:24:30.602Z,95424.61
2018-09-26T10:26:58.135Z,95420.42
2018-09-26T10:29:25.634Z,95425.03
2018-09-26T10:31:53.207Z,95425.11
2018-09-26T10:34:20.702Z,95412.20
2018-09-26T10:36:48.267Z,95418.02
2018-09-26T10:39:15.893Z,95412.83
2018-09-26T10:41:43.438Z,95412.69
2018-09-26T10:44:11.251Z,95419.13
2018-09-26T10:46:38.785Z,95423.49
2018-09-26T10:49:06.329Z,95427.72
2018-09-26T10:51:33.898Z,95418.44
2018-09-26T10:54:01.414Z,95420.23
2018-09-26T10:56:29.085Z,95423.35
2018-09-26T10:58:56.582Z,95423.20
2018-09-26T11:01:24.108Z,95424.22
2018-09-26T11:03:51.619Z,95415.81
2018-09-26T11:06:19.175Z,95415.75
2018-09-26T11:08:46.707Z,95418.79
2018-09-26T11:11:14.233Z,95409.67
2018-09-26T11:13:41.782Z,95396.77
2018-09-26T11:16:09.404Z,95402.61
2018-09-26T11:18:37.362Z,95401.92
2018-09-26T11:21:05.058Z,95392.40
2018-09-26T11:23:32.566Z,95397.24
2018-09-26T11:26:00.085Z,95397.21
2018-09-26T11:28:27.642Z,95404.35
2018-09-26T11:30:55.169Z,95405.91
2018-09-26T11:33:22.704Z,95407.69
2018-09-26T11:35:50.466Z,95408.75
2018-09-26T11:38:18.023Z,95406.41
2018-09-26T11:40:45.470Z,95416.74
2018-09-26T11:43:12.979Z,95413.92
2018-09-26T11:45:40.467Z,95410.36
2018-09-26T11:48:07.982Z,95399.87
2018-09-26T11:50:35.485Z,95387.39
2018-09-26T11:53:03.318Z,95384.84
2018-09-26T11:55:30.805Z,95380.47
2018-09-26T11:57:58.305Z,95389.74
2018-09-26T12:00:26.271Z,95385.13
2018-09-26T12:02:53.767Z,95382.50
2018-09-26T12:05:21.264Z,95384.09
2018-09-26T12:07:48.794Z,95378.44
2018-09-26T12:10:16.363Z,95372.67
2018-09-26T12:12:44.199Z,95367.45
2018-09-26T12:15:11.842Z,95369.17
2018-09-26T12:17:39.470Z,95364.86
2018-09-26T12:20:07.100Z,95369.01
2018-09-26T12:22:34.636Z,95358.21
2018-09-26T12:25:02.155Z,95361.02
2018-09-26T12:27:29.853Z,95360.72
2018-09-26T12:29:57.371Z,95355.98
2018-09-26T12:32:24.882Z,95347.23
2018-09-26T12:34:52.468Z,95351.27
2018-09-26T12:37:19.964Z,95354.98
2018-09-26T12:39:47.481Z,95354.08
2018-09-26T12:42:15.050Z,95355.28
2018-09-26T12:44:42.809Z,95350.07
2018-09-26T12:47:10.353Z,95350.52
2018-09-26T12:49:37.818Z,95352.45
2018-09-26T12:52:05.853Z,95353.34
2018-09-26T12:54:33.358Z,95347.56
2018-09-26T12:57:00.907Z,95349.34
2018-09-26T12:59:28.450Z,95353.06
2018-09-26T13:01:55.972Z,95351.23
2018-09-26T13:04:23.568Z,95346.08
2018-09-26T13:06:51.026Z,95352.88
2018-09-26T13:09:18.564Z,95346.17
2018-09-26T13:11:46.430Z,95348.53
2018-09-26T13:14:13.932Z,95339.65
2018-09-26T13:16:41.454Z,95332.55
2018-09-26T13:19:09.010Z,95331.95
2018-09-26T13:21:36.521Z,95339.73
2018-09-26T13:24:04.053Z,95336.58
2018-09-26T13:26:31.645Z,95334.47
2018-09-26T13:28:59.190Z,95336.47
2018-09-26T13:31:26.847Z,95335.07
2018-09-26T13:33:54.580Z,95328.70
2018-09-26T13:36:22.147Z,95329.28
2018-09-26T13:38:49.630Z,95327.65
2018-09-26T13:41:17.235Z,95326.73
2018-09-26T13:43:44.767Z,95323.56
2018-09-26T13:46:12.320Z,95323.16
2018-09-26T13:48:39.879Z,95318.12
2018-09-26T13:51:07.514Z,95320.64
2018-09-26T13:53:35.102Z,95317.22
2018-09-26T13:56:02.658Z,95311.45
2018-09-26T13:58:30.219Z,95316.33
2018-09-26T14:00:57.810Z,95315.72
2018-09-26T14:03:25.397Z,95313.92
2018-09-26T14:05:52.965Z,95317.16
2018-09-26T14:08:20.669Z,95322.66
2018-09-26T14:10:48.263Z,95317.00
2018-09-26T14:13:15.722Z,95319.98
2018-09-26T14:15:43.247Z,95315.58
2018-09-26T14:18:10.766Z,95316.91
2018-09-26T14:20:38.337Z,95316.03
2018-09-26T14:23:05.906Z,95311.25
2018-09-26T14:25:33.446Z,95313.98
2018-09-26T14:28:01.889Z,95310.13
2018-09-26T14:30:29.530Z,95309.88
2018-09-26T14:32:57.034Z,95306.95
2018-09-26T14:35:24.677Z,95310.55
2018-09-26T14:37:53.062Z,95305.57
2018-09-26T14:40:20.615Z,95309.62
2018-09-26T14:42:48.142Z,95303.45
2018-09-26T14:45:15.710Z,95302.25
2018-09-26T14:47:43.355Z,95303.89
2018-09-26T14:50:11.032Z,95304.28
2018-09-26T14:52:39.556Z,95303.25
2018-09-26T14:55:07.141Z,95303.91
2018-09-26T14:57:34.677Z,95299.65
2018-09-26T15:00:02.219Z,95297.45
2018-09-26T15:02:29.751Z,95301.03
2018-09-26T15:04:57.442Z,95296.18
2018-09-26T15:07:25.753Z,95295.82
2018-09-26T15:09:53.473Z,95299.83
2018-09-26T15:12:21.003Z,95295.70
2018-09-26T15:14:48.488Z,95298.53
2018-09-26T15:17:16.190Z,95302.84
2018-09-26T15:19:43.754Z,95300.99
2018-09-26T15:22:11.378Z,95294.60
2018-09-26T15:24:38.905Z,95293.13
2018-09-26T15:27:06.495Z,95291.27
2018-09-26T15:29:34.511Z,95280.20
2018-09-26T15:32:02.065Z,95289.52
2018-09-26T15:34:29.587Z,95286.08
2018-09-26T15:36:58.069Z,95282.55
2018-09-26T15:39:25.631Z,95289.44
2018-09-26T15:41:53.160Z,95290.80
2018-09-26T15:44:20.865Z,95290.02
2018-09-26T15:46:48.398Z,95295.30
2018-09-26T15:49:15.883Z,95294.88
2018-09-26T15:51:43.453Z,95301.73
2018-09-26T15:54:11.171Z,95303.78
2018-09-26T15:56:38.682Z,95297.64
2018-09-26T15:59:06.242Z,95301.81
2018-09-26T16:01:34.076Z,95299.07
2018-09-26T16:04:01.639Z,95299.28
2018-09-26T16:06:29.254Z,95300.00
2018-09-26T16:08:56.963Z,95296.73
2018-09-26T16:11:24.529Z,95300.72
2018-09-26T16:13:52.051Z,95302.91
2018-09-26T16:16:19.749Z,95302.83
2018-09-26T16:18:47.258Z,95300.52
2018-09-26T16:21:15.497Z,95302.62
2018-09-26T16:23:43.097Z,95301.77
2018-09-26T16:26:10.674Z,95297.98
2018-09-26T16:28:38.182Z,95302.77
2018-09-26T16:31:05.810Z,95306.52
2018-09-26T16:33:33.461Z,95315.34
2018-09-26T16:36:01.129Z,95311.72
2018-09-26T16:38:28.779Z,95305.55
2018-09-26T16:40:56.330Z,95315.03
2018-09-26T16:43:23.839Z,95314.23
2018-09-26T16:45:52.474Z,95322.64
2018-09-26T16:48:20.241Z,95326.13
2018-09-26T16:50:47.940Z,95322.20
2018-09-26T16:53:15.508Z,95315.30
2018-09-26T16:55:43.093Z,95326.17
2018-09-26T16:58:11.290Z,95321.90
2018-09-26T17:00:38.803Z,95323.88
2018-09-26T17:03:06.403Z,95328.91
2018-09-26T17:05:33.954Z,95322.18
2018-09-26T17:08:01.579Z,95324.44
2018-09-26T17:10:29.106Z,95325.27
2018-09-26T17:12:56.925Z,95320.03
2018-09-26T17:15:25.140Z,95330.00
2018-09-26T17:17:53.448Z,95336.53
2018-09-26T17:20:21.720Z,95328.39
2018-09-26T17:22:49.306Z,95323.25
2018-09-26T17:25:16.865Z,95325.08
2018-09-26T17:27:44.446Z,95322.31
2018-09-26T17:30:12.047Z,95323.53
2018-09-26T17:32:39.848Z,95324.48
2018-09-26T17:35:07.719Z,95327.30
2018-09-26T17:37:35.354Z,95330.33
2018-09-26T17:40:02.908Z,95335.16
2018-09-26T17:42:30.427Z,95332.16
2018-09-26T17:44:57.963Z,95332.02
2018-09-26T17:47:25.511Z,95331.61
2018-09-26T17:49:53.052Z,95332.85
2018-09-26T17:52:20.624Z,95335.35
2018-09-26T17:54:48.476Z,95331.86
2018-09-26T17:57:15.958Z,95333.66
2018-09-26T17:59:43.521Z,95338.00
2018-09-26T18:02:11.126Z,95335.05
2018-09-26T18:04:38.636Z,95334.17
2018-09-26T18:07:06.186Z,95343.22
2018-09-26T18:09:33.766Z,95346.63
2018-09-26T18:12:01.329Z,95344.73
2018-09-26T18:14:28.891Z,95344.44
2018-09-26T18:16:56.462Z,95353.55
2018-09-26T18:19:24.016Z,95346.25
2018-09-26T18:21:51.576Z,95349.98
2018-09-26T18:24:19.116Z,95357.60
2018-09-26T18:26:46.770Z,95357.65
2018-09-26T18:29:14.324Z,95355.22
2018-09-26T18:31:41.842Z,95351.96
2018-09-26T18:34:09.417Z,95349.45
2018-09-26T18:36:37.016Z,95354.25
2018-09-26T18:39:05.997Z,95355.44
2018-09-26T18:41:33.484Z,95353.63
2018-09-26T18:44:01.042Z,95353.70
2018-09-26T18:46:28.654Z,95357.95
2018-09-26T18:48:56.183Z,95356.70
2018-09-26T18:51:23.742Z,95363.31
2018-09-26T18:53:51.423Z,95369.24
2018-09-26T18:56:18.981Z,95368.79
2018-09-26T18:58:46.681Z,95369.09
2018-09-26T19:01:14.230Z,95367.55
2018-09-26T19:03:41.765Z,95368.14
2018-09-26T19:06:09.365Z,95372.96
2018-09-26T19:08:37.603Z,95375.77
2018-09-26T19:11:05.187Z,95386.44
2018-09-26T19:13:32.786Z,95386.88
2018-09-26T19:16:00.325Z,95391.25
2018-09-26T19:18:27.877Z,95396.63
2018-09-26T19:20:55.566Z,95388.25
2018-09-26T19:23:23.065Z,95393.55
2018-09-26T19:25:50.618Z,95394.94
2018-09-26T19:28:18.212Z,95393.95
2018-09-26T19:30:45.784Z,95390.31
2018-09-26T19:33:13.435Z,95390.94
2018-09-26T19:35:41.167Z,95379.14
2018-09-26T19:38:08.971Z,95389.66
2018-09-26T19:40:36.511Z,95390.66
2018-09-26T19:43:04.055Z,95392.02
2018-09-26T19:45:31.601Z,95391.59
2018-09-26T19:47:59.145Z,95393.75
2018-09-26T19:50:26.784Z,95390.81
2018-09-26T19:52:54.365Z,95395.78
2018-09-26T19:55:22.027Z,95398.75
2018-09-26T19:57:50.231Z,95398.75
2018-09-26T20:00:17.748Z,95401.38
2018-09-26T20:02:45.290Z,95404.99
2018-09-26T20:05:12.937Z,95408.42
2018-09-26T20:07:40.483Z,95413.68
2018-09-26T20:10:08.500Z,95410.25
2018-09-26T20:12:36.053Z,95413.86
2018-09-26T20:15:03.684Z,95412.52
2018-09-26T20:17:31.234Z,95421.23
2018-09-26T20:19:58.834Z,95418.29
2018-09-26T20:22:26.395Z,95419.59
2018-09-26T20:24:54.026Z,95419.42
2018-09-26T20:27:21.732Z,95415.83
2018-09-26T20:29:49.187Z,95413.19
2018-09-26T20:32:16.698Z,95416.80
2018-09-26T20:34:44.247Z,95415.97
2018-09-26T20:37:11.868Z,95420.61
2018-09-26T20:39:39.330Z,95419.30
2018-09-26T20:42:06.866Z,95416.92
2018-09-26T20:44:34.803Z,95415.30
2018-09-26T20:47:02.322Z,95419.53
2018-09-26T20:49:29.892Z,95418.31
2018-09-26T20:51:57.495Z,95420.64
2018-09-26T20:54:25.145Z,95425.36
2018-09-26T20:56:52.753Z,95426.95
2018-09-26T20:59:20.271Z,95423.98
2018-09-26T21:01:47.787Z,95427.64
2018-09-26T21:04:15.360Z,95420.78
2018-09-26T21:06:42.942Z,95416.44
2018-09-26T21:09:11.066Z,95420.46
2018-09-26T21:11:39.109Z,95421.77
2018-09-26T21:14:06.630Z,95418.49
2018-09-26T21:16:34.320Z,95422.67
2018-09-26T21:19:01.827Z,95417.68
2018-09-26T21:21:29.340Z,95421.89
2018-09-26T21:23:57.465Z,95410.69
2018-09-26T21:26:25.210Z,95411.02
2018-09-26T21:28:52.770Z,95415.20
2018-09-26T21:31:20.390Z,95407.03
2018-09-26T21:33:48.011Z,95407.64
2018-09-26T21:36:15.520Z,95405.84
2018-09-26T21:38:43.054Z,95407.35
2018-09-26T21:41:10.818Z,95408.94
2018-09-26T21:43:38.323Z,95409.31
2018-09-26T21:46:05.837Z,95403.22
2018-09-26T21:48:33.483Z,95395.53
2018-09-26T21:51:01.231Z,95404.11
2018-09-26T21:53:28.834Z,95400.52
2018-09-26T21:55:56.374Z,95396.17
2018-09-26T21:58:23.957Z,95391.90
2018-09-26T22:00:57.109Z,95391.25
2018-09-26T22:03:25.094Z,95389.85
2018-09-26T22:05:52.682Z,95389.13
2018-09-26T22:08:20.399Z,95387.48
2018-09-26T22:10:48.014Z,95388.69
2018-09-26T22:13:15.615Z,95389.70
2018-09-26T22:15:43.522Z,95380.19
2018-09-26T22:18:11.123Z,95375.34
2018-09-26T22:20:38.737Z,95380.94
2018-09-26T22:23:07.145Z,95378.03
2018-09-26T22:25:34.763Z,95381.63
2018-09-26T22:28:02.494Z,95381.84
2018-09-26T22:30:30.078Z,95380.48
2018-09-26T22:32:57.691Z,95374.24
2018-09-26T22:35:25.376Z,95377.15
2018-09-26T22:37:52.960Z,95374.22
2018-09-26T22:40:20.583Z,95374.77
2018-09-26T22:42:48.221Z,95370.47
2018-09-26T22:45:15.798Z,95375.34
2018-09-26T22:47:43.402Z,95369.05
2018-09-26T22:50:10.986Z,95371.31
2018-09-26T22:52:38.550Z,95372.56
2018-09-26T22:55:06.259Z,95371.53
2018-09-26T22:57:33.846Z,95370.54
2018-09-26T23:00:01.721Z,95366.64
2018-09-26T23:02:29.346Z,95363.67
2018-09-26T23:04:56.921Z,95349.34
2018-09-26T23:07:24.534Z,95346.67
2018-09-26T23:09:52.173Z,95356.16
2018-09-26T23:12:19.773Z,95350.34
2018-09-26T23:14:47.581Z,95350.20
2018-09-26T23:17:15.170Z,95351.26
2018-09-26T23:19:42.864Z,95347.58
2018-09-26T23:22:10.474Z,95345.90
2018-09-26T23:24:38.335Z,95340.69
2018-09-26T23:27:05.982Z,95345.56
2018-09-26T23:29:33.565Z,95344.72
2018-09-26T23:32:01.196Z,95341.15
2018-09-26T23:34:28.871Z,95341.94
2018-09-26T23:36:56.493Z,95331.84
2018-09-26T23:39:24.086Z,95334.09
2018-09-26T23:41:51.778Z,95333.52
2018-09-26T23:44:19.357Z,95337.45
2018-09-26T23:46:46.925Z,95334.03
2018-09-26T23:49:14.535Z,95336.36
2018-09-26T23:51:42.378Z,95333.14
2018-09-26T23:54:10.188Z,95336.49
2018-09-26T23:56:37.768Z,95340.39
2018-09-26T23:59:05.370Z,95336.08
